57C weather

East Troy Municipal Airport
East Troy, Wisconsin, United States

Public forecast

Using degrees Fahrenheit for public forecast. Weather courtesy of forecast.io.

METAR (pilot weather report)

Closest report is Burlington Municipal Airport, 7.1 nm (13.1 km) SSE. Retrieved 2019/08/26 07:35 UTC (0 seconds ago):

KBUU 260735Z AUTO 09004KT 10SM BKN080 BKN100 18/16 A2993 RMK AO2 T01800162

TAF (pilot weather forecast)

Closest forecast is Waukesha County Airport, 15.8 nm (29.3 km) NNE. Retrieved 2019/08/26 06:22 UTC (1 hour ago):

TAF KUES 260520Z 2606/2706 13006KT P6SM VCSH SCT040 OVC100 TEMPO 2606/2608 -SHRA BKN040 FM260900 12006KT P6SM -SHRA SCT040 BKN080 FM261100 12007KT 6SM SHRA SCT030 OVC045 FM261400 12009KT 5SM SHRA SCT013 OVC025 FM261800 13010KT 5SM -SHRA BR SCT005 OVC014 FM262100 14009KT P6SM VCSH SCT006 OVC019 FM270300 18007KT 5SM -SHRA SCT007 OVC010